KONL/ONL METAR and TAF weather

Enter ICAO airport designator
Station Type Date Time Source
KONL METAR 2019/06/17 04:35 UTC NOAA

KONL 170435Z AUTO 36006KT 10SM BKN100 21/14 A2997 RMK AO2 T02050140


Station Type Date Time Source
KONL Decoded METAR 2019/06/17 04:35 UTC NOAA

O'Neill / Baker Field, NE, United States (KONL) 42-28N 098-41W
Jun 17, 2019 - 12:35 AM EDT / 2019.06.17 0435 UTC
Wind: from the N (360 degrees) at 7 MPH (6 KT):0
Visibility: 10 mile(s):0
Sky conditions: mostly cloudy
Temperature: 68.9 F (20.5 C)
Dew Point: 57.2 F (14.0 C)
Relative Humidity: 66%
Pressure (altimeter): 29.97 in. Hg (1014 hPa)
ob: KONL 170435Z AUTO 36006KT 10SM BKN100 21/14 A2997 RMK AO2 T02050140
cycle: 4

Station Type Date Time Source
KONL TAF UTC NOAA

Error!

Example: see airport list